sensor_id;sensor_type;location;lat;lon;timestamp;pressure;altitude;pressure_sealevel;temperature;humidity
73624;BME280;61921;53.226;-1.296;2023-03-19T00:01:15;99794.67;;;7.51;91.31
73624;BME280;61921;53.226;-1.296;2023-03-19T00:03:41;99795.72;;;7.57;90.41
73624;BME280;61921;53.226;-1.296;2023-03-19T00:06:07;99799.14;;;7.55;90.07
73624;BME280;61921;53.226;-1.296;2023-03-19T00:08:31;99798.74;;;7.52;91.24
73624;BME280;61921;53.226;-1.296;2023-03-19T00:10:56;99791.68;;;7.42;90.60
73624;BME280;61921;53.226;-1.296;2023-03-19T00:13:22;99793.99;;;7.40;89.73
73624;BME280;61921;53.226;-1.296;2023-03-19T00:15:48;99794.14;;;7.35;90.09
73624;BME280;61921;53.226;-1.296;2023-03-19T00:18:13;99803.76;;;7.28;91.26
73624;BME280;61921;53.226;-1.296;2023-03-19T00:20:39;99821.59;;;7.29;89.63
73624;BME280;61921;53.226;-1.296;2023-03-19T00:23:04;99828.41;;;7.29;89.51
73624;BME280;61921;53.226;-1.296;2023-03-19T00:25:30;99832.48;;;7.32;89.96
73624;BME280;61921;53.226;-1.296;2023-03-19T00:27:55;99834.37;;;7.26;88.28
73624;BME280;61921;53.226;-1.296;2023-03-19T00:30:21;99837.37;;;7.26;88.28
73624;BME280;61921;53.226;-1.296;2023-03-19T00:32:46;99832.34;;;7.25;88.42
73624;BME280;61921;53.226;-1.296;2023-03-19T00:35:11;99839.00;;;7.25;88.42
73624;BME280;61921;53.226;-1.296;2023-03-19T00:37:37;99838.85;;;7.20;88.66
73624;BME280;61921;53.226;-1.296;2023-03-19T00:40:04;99831.70;;;7.09;88.69
73624;BME280;61921;53.226;-1.296;2023-03-19T00:42:29;99835.88;;;7.12;87.09
73624;BME280;61921;53.226;-1.296;2023-03-19T00:44:54;99846.22;;;7.09;88.19
73624;BME280;61921;53.226;-1.296;2023-03-19T00:47:20;99838.43;;;7.08;87.38
73624;BME280;61921;53.226;-1.296;2023-03-19T00:49:45;99834.51;;;7.04;86.49
73624;BME280;61921;53.226;-1.296;2023-03-19T00:52:11;99833.70;;;7.03;87.20
73624;BME280;61921;53.226;-1.296;2023-03-19T00:54:37;99843.83;;;7.04;86.83
73624;BME280;61921;53.226;-1.296;2023-03-19T00:57:02;99853.28;;;7.08;86.79
73624;BME280;61921;53.226;-1.296;2023-03-19T00:59:27;99851.44;;;7.07;87.09
73624;BME280;61921;53.226;-1.296;2023-03-19T01:01:53;99855.10;;;7.10;86.89
73624;BME280;61921;53.226;-1.296;2023-03-19T01:04:20;99850.17;;;7.04;87.24
73624;BME280;61921;53.226;-1.296;2023-03-19T01:06:44;99859.21;;;7.07;86.76
73624;BME280;61921;53.226;-1.296;2023-03-19T01:09:10;99858.54;;;7.05;86.79
73624;BME280;61921;53.226;-1.296;2023-03-19T01:11:35;99859.13;;;7.04;85.92
73624;BME280;61921;53.226;-1.296;2023-03-19T01:14:01;99853.07;;;7.06;86.80
73624;BME280;61921;53.226;-1.296;2023-03-19T01:16:27;99850.60;;;7.04;86.56
73624;BME280;61921;53.226;-1.296;2023-03-19T01:18:52;99856.50;;;7.08;85.98
73624;BME280;61921;53.226;-1.296;2023-03-19T01:21:17;99865.30;;;7.08;86.83
73624;BME280;61921;53.226;-1.296;2023-03-19T01:23:43;99865.15;;;7.12;87.01
73624;BME280;61921;53.226;-1.296;2023-03-19T01:26:08;99853.80;;;7.11;87.15
73624;BME280;61921;53.226;-1.296;2023-03-19T01:28:34;99863.68;;;7.14;86.57
73624;BME280;61921;53.226;-1.296;2023-03-19T01:31:03;99863.48;;;7.15;85.83
73624;BME280;61921;53.226;-1.296;2023-03-19T01:33:25;99854.88;;;7.18;86.58
73624;BME280;61921;53.226;-1.296;2023-03-19T01:35:51;99857.57;;;7.14;86.68
73624;BME280;61921;53.226;-1.296;2023-03-19T01:38:16;99855.30;;;7.13;86.48
73624;BME280;61921;53.226;-1.296;2023-03-19T01:40:45;99863.08;;;7.14;86.51
73624;BME280;61921;53.226;-1.296;2023-03-19T01:43:14;99878.27;;;7.15;85.87
73624;BME280;61921;53.226;-1.296;2023-03-19T01:45:35;99872.26;;;7.20;85.00
73624;BME280;61921;53.226;-1.296;2023-03-19T01:47:58;99872.62;;;7.23;85.50
73624;BME280;61921;53.226;-1.296;2023-03-19T01:50:26;99881.87;;;7.22;85.55
73624;BME280;61921;53.226;-1.296;2023-03-19T01:52:49;99864.28;;;7.16;85.24
73624;BME280;61921;53.226;-1.296;2023-03-19T01:55:14;99872.98;;;7.15;85.67
73624;BME280;61921;53.226;-1.296;2023-03-19T01:57:40;99880.05;;;7.10;85.47
73624;BME280;61921;53.226;-1.296;2023-03-19T02:00:07;99871.86;;;7.05;85.45
73624;BME280;61921;53.226;-1.296;2023-03-19T02:02:32;99853.70;;;7.02;85.56
73624;BME280;61921;53.226;-1.296;2023-03-19T02:04:59;99864.19;;;7.04;84.45
73624;BME280;61921;53.226;-1.296;2023-03-19T02:07:22;99867.46;;;7.02;84.57
73624;BME280;61921;53.226;-1.296;2023-03-19T02:09:48;99865.56;;;7.06;83.99
73624;BME280;61921;53.226;-1.296;2023-03-19T02:12:14;99869.07;;;7.06;84.81
73624;BME280;61921;53.226;-1.296;2023-03-19T02:14:38;99870.82;;;7.10;84.19
73624;BME280;61921;53.226;-1.296;2023-03-19T02:17:06;99867.60;;;7.12;84.22
73624;BME280;61921;53.226;-1.296;2023-03-19T02:19:34;99870.92;;;7.19;85.55
73624;BME280;61921;53.226;-1.296;2023-03-19T02:21:57;99877.86;;;7.16;84.63
73624;BME280;61921;53.226;-1.296;2023-03-19T02:24:25;99874.73;;;7.19;84.55
73624;BME280;61921;53.226;-1.296;2023-03-19T02:26:47;99874.85;;;7.17;84.85
73624;BME280;61921;53.226;-1.296;2023-03-19T02:29:14;99879.09;;;7.20;85.30
73624;BME280;61921;53.226;-1.296;2023-03-19T02:31:38;99879.62;;;7.25;83.72
73624;BME280;61921;53.226;-1.296;2023-03-19T02:34:04;99885.21;;;7.33;84.13
73624;BME280;61921;53.226;-1.296;2023-03-19T02:36:32;99888.20;;;7.33;84.17
73624;BME280;61921;53.226;-1.296;2023-03-19T02:38:55;99892.75;;;7.35;83.20
73624;BME280;61921;53.226;-1.296;2023-03-19T02:41:20;99896.81;;;7.40;83.27
73624;BME280;61921;53.226;-1.296;2023-03-19T02:43:45;99897.36;;;7.42;83.33
73624;BME280;61921;53.226;-1.296;2023-03-19T02:46:12;99901.47;;;7.42;83.69
73624;BME280;61921;53.226;-1.296;2023-03-19T02:48:37;99903.37;;;7.40;83.43
73624;BME280;61921;53.226;-1.296;2023-03-19T02:51:02;99897.92;;;7.42;83.93
73624;BME280;61921;53.226;-1.296;2023-03-19T02:53:27;99895.75;;;7.35;83.98
73624;BME280;61921;53.226;-1.296;2023-03-19T02:55:53;99901.70;;;7.35;84.50
73624;BME280;61921;53.226;-1.296;2023-03-19T02:58:18;99902.30;;;7.28;84.56
73624;BME280;61921;53.226;-1.296;2023-03-19T03:00:43;99903.10;;;7.38;85.19
73624;BME280;61921;53.226;-1.296;2023-03-19T03:03:09;99902.96;;;7.30;84.95
73624;BME280;61921;53.226;-1.296;2023-03-19T03:05:35;99908.05;;;7.30;85.71
73624;BME280;61921;53.226;-1.296;2023-03-19T03:08:00;99919.83;;;7.17;84.65
73624;BME280;61921;53.226;-1.296;2023-03-19T03:10:25;99922.76;;;7.20;85.09
73624;BME280;61921;53.226;-1.296;2023-03-19T03:12:50;99923.82;;;7.19;84.64
73624;BME280;61921;53.226;-1.296;2023-03-19T03:15:17;99923.68;;;7.15;84.70
73624;BME280;61921;53.226;-1.296;2023-03-19T03:17:43;99931.87;;;7.16;85.26
73624;BME280;61921;53.226;-1.296;2023-03-19T03:20:09;99934.48;;;7.18;85.45
73624;BME280;61921;53.226;-1.296;2023-03-19T03:22:33;99936.28;;;7.18;85.28
73624;BME280;61921;53.226;-1.296;2023-03-19T03:24:59;99941.46;;;7.25;85.75
73624;BME280;61921;53.226;-1.296;2023-03-19T03:27:24;99942.95;;;7.20;85.94
73624;BME280;61921;53.226;-1.296;2023-03-19T03:29:50;99941.08;;;7.25;86.20
73624;BME280;61921;53.226;-1.296;2023-03-19T03:32:15;99943.81;;;7.43;86.70
73624;BME280;61921;53.226;-1.296;2023-03-19T03:34:41;99948.13;;;7.43;85.42
73624;BME280;61921;53.226;-1.296;2023-03-19T03:37:07;99952.60;;;7.37;85.37
73624;BME280;61921;53.226;-1.296;2023-03-19T03:39:32;99952.37;;;7.44;86.57
73624;BME280;61921;53.226;-1.296;2023-03-19T03:41:58;99957.12;;;7.48;86.41
73624;BME280;61921;53.226;-1.296;2023-03-19T03:44:23;99956.50;;;7.71;85.38
73624;BME280;61921;53.226;-1.296;2023-03-19T03:46:48;99959.97;;;7.74;85.10
73624;BME280;61921;53.226;-1.296;2023-03-19T03:49:14;99964.97;;;7.81;84.83
73624;BME280;61921;53.226;-1.296;2023-03-19T03:51:39;99960.47;;;7.76;84.98
73624;BME280;61921;53.226;-1.296;2023-03-19T03:54:06;99960.93;;;7.75;84.48
73624;BME280;61921;53.226;-1.296;2023-03-19T03:56:30;99962.25;;;7.39;85.15
73624;BME280;61921;53.226;-1.296;2023-03-19T03:58:56;99960.77;;;7.37;86.61
73624;BME280;61921;53.226;-1.296;2023-03-19T04:01:21;99965.41;;;7.37;86.13
73624;BME280;61921;53.226;-1.296;2023-03-19T04:03:47;99965.33;;;7.38;86.33
73624;BME280;61921;53.226;-1.296;2023-03-19T04:06:14;99968.49;;;7.27;86.70
73624;BME280;61921;53.226;-1.296;2023-03-19T04:08:38;99973.84;;;7.23;87.20
73624;BME280;61921;53.226;-1.296;2023-03-19T04:11:06;99975.54;;;7.13;88.01
73624;BME280;61921;53.226;-1.296;2023-03-19T04:13:29;99975.54;;;6.86;88.89
73624;BME280;61921;53.226;-1.296;2023-03-19T04:15:54;99973.29;;;6.82;89.57
73624;BME280;61921;53.226;-1.296;2023-03-19T04:18:20;99978.79;;;6.70;89.94
73624;BME280;61921;53.226;-1.296;2023-03-19T04:20:45;99977.10;;;6.59;90.40
73624;BME280;61921;53.226;-1.296;2023-03-19T04:23:11;99980.63;;;6.55;90.99
73624;BME280;61921;53.226;-1.296;2023-03-19T04:25:38;99979.99;;;6.51;91.06
73624;BME280;61921;53.226;-1.296;2023-03-19T04:28:02;99982.35;;;6.48;91.41
73624;BME280;61921;53.226;-1.296;2023-03-19T04:30:28;99986.64;;;6.54;91.53
73624;BME280;61921;53.226;-1.296;2023-03-19T04:32:53;99987.98;;;6.61;91.35
73624;BME280;61921;53.226;-1.296;2023-03-19T04:35:19;99992.36;;;6.68;91.40
73624;BME280;61921;53.226;-1.296;2023-03-19T04:37:44;99991.06;;;6.70;90.78
73624;BME280;61921;53.226;-1.296;2023-03-19T04:40:11;99992.79;;;6.73;91.26
73624;BME280;61921;53.226;-1.296;2023-03-19T04:42:35;99998.03;;;6.70;90.78
73624;BME280;61921;53.226;-1.296;2023-03-19T04:45:00;100001.56;;;6.68;91.26
73624;BME280;61921;53.226;-1.296;2023-03-19T04:47:26;100001.57;;;6.66;91.55
73624;BME280;61921;53.226;-1.296;2023-03-19T04:49:52;100002.18;;;6.65;91.26
73624;BME280;61921;53.226;-1.296;2023-03-19T04:52:17;100006.34;;;6.64;91.39
73624;BME280;61921;53.226;-1.296;2023-03-19T04:54:43;100006.06;;;6.59;91.77
73624;BME280;61921;53.226;-1.296;2023-03-19T04:57:09;100009.19;;;6.58;91.86
73624;BME280;61921;53.226;-1.296;2023-03-19T04:59:34;100017.57;;;6.54;92.03
73624;BME280;61921;53.226;-1.296;2023-03-19T05:01:59;100019.51;;;6.52;92.12
73624;BME280;61921;53.226;-1.296;2023-03-19T05:04:25;100020.94;;;6.49;92.27
73624;BME280;61921;53.226;-1.296;2023-03-19T05:06:51;100025.74;;;6.51;92.07
73624;BME280;61921;53.226;-1.296;2023-03-19T05:09:16;100025.97;;;6.48;91.87
73624;BME280;61921;53.226;-1.296;2023-03-19T05:11:42;100031.83;;;6.52;91.95
73624;BME280;61921;53.226;-1.296;2023-03-19T05:14:07;100031.25;;;6.59;91.55
73624;BME280;61921;53.226;-1.296;2023-03-19T05:16:33;100031.95;;;6.81;91.06
73624;BME280;61921;53.226;-1.296;2023-03-19T05:18:59;100039.38;;;6.96;89.95
73624;BME280;61921;53.226;-1.296;2023-03-19T05:21:24;100044.66;;;7.10;89.51
73624;BME280;61921;53.226;-1.296;2023-03-19T05:23:49;100047.28;;;7.12;89.04
73624;BME280;61921;53.226;-1.296;2023-03-19T05:26:15;100050.27;;;7.25;88.56
73624;BME280;61921;53.226;-1.296;2023-03-19T05:28:41;100051.16;;;7.39;87.77
73624;BME280;61921;53.226;-1.296;2023-03-19T05:31:08;100053.18;;;7.22;87.88
73624;BME280;61921;53.226;-1.296;2023-03-19T05:33:32;100049.13;;;7.27;87.52
73624;BME280;61921;53.226;-1.296;2023-03-19T05:35:57;100056.96;;;7.14;88.04
73624;BME280;61921;53.226;-1.296;2023-03-19T05:38:23;100061.12;;;7.03;88.26
73624;BME280;61921;53.226;-1.296;2023-03-19T05:40:48;100061.54;;;7.07;88.24
73624;BME280;61921;53.226;-1.296;2023-03-19T05:43:13;100064.02;;;6.95;88.85
73624;BME280;61921;53.226;-1.296;2023-03-19T05:45:39;100068.40;;;6.94;88.65
73624;BME280;61921;53.226;-1.296;2023-03-19T05:48:06;100069.86;;;6.92;89.08
73624;BME280;61921;53.226;-1.296;2023-03-19T05:50:30;100069.19;;;6.98;88.11
73624;BME280;61921;53.226;-1.296;2023-03-19T05:52:55;100072.08;;;6.91;88.67
73624;BME280;61921;53.226;-1.296;2023-03-19T05:55:21;100076.67;;;6.77;88.58
73624;BME280;61921;53.226;-1.296;2023-03-19T05:57:46;100080.58;;;6.75;88.93
73624;BME280;61921;53.226;-1.296;2023-03-19T06:00:13;100082.63;;;6.36;90.35
73624;BME280;61921;53.226;-1.296;2023-03-19T06:02:37;100080.66;;;6.27;92.47
73624;BME280;61921;53.226;-1.296;2023-03-19T06:05:04;100079.99;;;6.22;93.20
73624;BME280;61921;53.226;-1.296;2023-03-19T06:07:28;100080.41;;;6.32;92.75
73624;BME280;61921;53.226;-1.296;2023-03-19T06:09:54;100080.82;;;6.31;92.85
73624;BME280;61921;53.226;-1.296;2023-03-19T06:12:20;100080.34;;;6.27;93.35
73624;BME280;61921;53.226;-1.296;2023-03-19T06:14:45;100082.12;;;6.19;93.30
73624;BME280;61921;53.226;-1.296;2023-03-19T06:17:11;100089.29;;;6.20;93.71
73624;BME280;61921;53.226;-1.296;2023-03-19T06:19:36;100091.67;;;6.43;92.71
73624;BME280;61921;53.226;-1.296;2023-03-19T06:22:02;100100.48;;;6.64;91.49
73624;BME280;61921;53.226;-1.296;2023-03-19T06:24:27;100108.41;;;6.77;90.57
73624;BME280;61921;53.226;-1.296;2023-03-19T06:26:53;100115.02;;;6.91;89.69
73624;BME280;61921;53.226;-1.296;2023-03-19T06:29:18;100121.54;;;7.00;88.99
73624;BME280;61921;53.226;-1.296;2023-03-19T06:31:44;100126.98;;;7.07;88.76
73624;BME280;61921;53.226;-1.296;2023-03-19T06:34:09;100130.19;;;7.15;88.56
73624;BME280;61921;53.226;-1.296;2023-03-19T06:36:35;100136.58;;;7.26;88.64
73624;BME280;61921;53.226;-1.296;2023-03-19T06:39:00;100142.05;;;7.33;88.15
73624;BME280;61921;53.226;-1.296;2023-03-19T06:41:26;100143.44;;;7.26;87.69
73624;BME280;61921;53.226;-1.296;2023-03-19T06:43:52;100141.87;;;7.15;88.01
73624;BME280;61921;53.226;-1.296;2023-03-19T06:46:17;100147.31;;;7.03;88.87
73624;BME280;61921;53.226;-1.296;2023-03-19T06:48:43;100150.43;;;6.88;89.54
73624;BME280;61921;53.226;-1.296;2023-03-19T06:51:09;100151.35;;;6.80;89.88
73624;BME280;61921;53.226;-1.296;2023-03-19T06:53:34;100145.54;;;6.67;90.06
73624;BME280;61921;53.226;-1.296;2023-03-19T06:55:59;100147.94;;;6.42;90.68
73624;BME280;61921;53.226;-1.296;2023-03-19T06:58:25;100150.88;;;6.58;90.29
73624;BME280;61921;53.226;-1.296;2023-03-19T07:00:50;100149.48;;;6.69;90.24
73624;BME280;61921;53.226;-1.296;2023-03-19T07:03:16;100152.74;;;6.73;89.89
73624;BME280;61921;53.226;-1.296;2023-03-19T07:05:42;100155.54;;;6.72;89.40
73624;BME280;61921;53.226;-1.296;2023-03-19T07:08:08;100161.48;;;6.78;90.13
73624;BME280;61921;53.226;-1.296;2023-03-19T07:10:33;100166.97;;;6.82;89.54
73624;BME280;61921;53.226;-1.296;2023-03-19T07:12:58;100175.40;;;6.92;89.41
73624;BME280;61921;53.226;-1.296;2023-03-19T07:15:24;100180.58;;;6.92;89.64
73624;BME280;61921;53.226;-1.296;2023-03-19T07:17:50;100180.12;;;6.97;89.91
73624;BME280;61921;53.226;-1.296;2023-03-19T07:20:16;100182.37;;;7.07;90.14
73624;BME280;61921;53.226;-1.296;2023-03-19T07:22:41;100179.60;;;7.06;90.53
73624;BME280;61921;53.226;-1.296;2023-03-19T07:25:07;100177.95;;;7.13;90.39
73624;BME280;61921;53.226;-1.296;2023-03-19T07:27:32;100180.17;;;7.19;90.76
73624;BME280;61921;53.226;-1.296;2023-03-19T07:29:57;100182.57;;;7.25;90.28
73624;BME280;61921;53.226;-1.296;2023-03-19T07:32:23;100185.85;;;7.30;90.17
73624;BME280;61921;53.226;-1.296;2023-03-19T07:34:48;100188.99;;;7.37;89.77
73624;BME280;61921;53.226;-1.296;2023-03-19T07:37:13;100193.36;;;7.39;89.88
73624;BME280;61921;53.226;-1.296;2023-03-19T07:39:39;100196.47;;;7.42;89.43
73624;BME280;61921;53.226;-1.296;2023-03-19T07:42:04;100198.42;;;7.51;88.70
73624;BME280;61921;53.226;-1.296;2023-03-19T07:44:30;100197.65;;;7.72;88.91
73624;BME280;61921;53.226;-1.296;2023-03-19T07:46:55;100200.37;;;7.60;88.99
73624;BME280;61921;53.226;-1.296;2023-03-19T07:49:21;100206.35;;;7.81;88.64
73624;BME280;61921;53.226;-1.296;2023-03-19T07:51:45;100207.42;;;7.94;88.14
73624;BME280;61921;53.226;-1.296;2023-03-19T07:54:11;100215.65;;;8.08;88.07
73624;BME280;61921;53.226;-1.296;2023-03-19T07:56:37;100213.12;;;7.84;87.77
73624;BME280;61921;53.226;-1.296;2023-03-19T07:59:02;100217.66;;;8.03;88.22
73624;BME280;61921;53.226;-1.296;2023-03-19T08:01:28;100218.45;;;8.12;88.20
73624;BME280;61921;53.226;-1.296;2023-03-19T08:03:53;100222.29;;;8.09;87.32
73624;BME280;61921;53.226;-1.296;2023-03-19T08:06:19;100227.37;;;8.19;87.41
73624;BME280;61921;53.226;-1.296;2023-03-19T08:08:44;100226.75;;;8.33;86.78
73624;BME280;61921;53.226;-1.296;2023-03-19T08:11:10;100226.72;;;8.41;87.21
73624;BME280;61921;53.226;-1.296;2023-03-19T08:13:35;100228.61;;;8.31;86.41
73624;BME280;61921;53.226;-1.296;2023-03-19T08:16:01;100230.32;;;8.37;86.94
73624;BME280;61921;53.226;-1.296;2023-03-19T08:18:26;100231.40;;;8.49;85.50
73624;BME280;61921;53.226;-1.296;2023-03-19T08:20:51;100240.42;;;8.56;86.76
73624;BME280;61921;53.226;-1.296;2023-03-19T08:23:17;100248.58;;;8.56;84.60
73624;BME280;61921;53.226;-1.296;2023-03-19T08:25:42;100249.79;;;8.71;84.30
73624;BME280;61921;53.226;-1.296;2023-03-19T08:28:08;100255.15;;;8.89;85.07
73624;BME280;61921;53.226;-1.296;2023-03-19T08:30:33;100251.42;;;8.87;82.33
73624;BME280;61921;53.226;-1.296;2023-03-19T08:32:59;100254.14;;;8.92;83.09
73624;BME280;61921;53.226;-1.296;2023-03-19T08:35:24;100252.96;;;9.04;82.85
73624;BME280;61921;53.226;-1.296;2023-03-19T08:37:50;100252.39;;;9.11;80.80
73624;BME280;61921;53.226;-1.296;2023-03-19T08:40:16;100245.48;;;9.17;82.55
73624;BME280;61921;53.226;-1.296;2023-03-19T08:42:41;100247.49;;;9.46;80.79
73624;BME280;61921;53.226;-1.296;2023-03-19T08:45:08;100253.49;;;9.58;80.27
73624;BME280;61921;53.226;-1.296;2023-03-19T08:47:32;100254.09;;;9.58;78.95
73624;BME280;61921;53.226;-1.296;2023-03-19T08:49:58;100258.07;;;9.53;79.65
73624;BME280;61921;53.226;-1.296;2023-03-19T08:52:23;100260.45;;;9.39;79.48
73624;BME280;61921;53.226;-1.296;2023-03-19T08:54:49;100266.13;;;9.71;80.49
73624;BME280;61921;53.226;-1.296;2023-03-19T08:57:14;100264.96;;;9.66;78.54
73624;BME280;61921;53.226;-1.296;2023-03-19T08:59:39;100266.30;;;10.09;76.30
73624;BME280;61921;53.226;-1.296;2023-03-19T09:02:08;100276.53;;;10.25;76.54
73624;BME280;61921;53.226;-1.296;2023-03-19T09:04:30;100282.53;;;10.21;76.32
73624;BME280;61921;53.226;-1.296;2023-03-19T09:06:56;100279.94;;;10.78;74.10
73624;BME280;61921;53.226;-1.296;2023-03-19T09:09:23;100284.26;;;10.62;75.59
73624;BME280;61921;53.226;-1.296;2023-03-19T09:11:47;100285.36;;;10.36;75.71
73624;BME280;61921;53.226;-1.296;2023-03-19T09:14:12;100288.48;;;10.22;75.56
73624;BME280;61921;53.226;-1.296;2023-03-19T09:16:38;100293.76;;;10.32;76.19
73624;BME280;61921;53.226;-1.296;2023-03-19T09:19:02;100293.55;;;10.03;75.96
73624;BME280;61921;53.226;-1.296;2023-03-19T09:21:28;100292.53;;;9.81;77.23
73624;BME280;61921;53.226;-1.296;2023-03-19T09:23:53;100289.35;;;9.96;77.17
73624;BME280;61921;53.226;-1.296;2023-03-19T09:26:19;100291.49;;;10.29;76.41
73624;BME280;61921;53.226;-1.296;2023-03-19T09:28:44;100296.77;;;10.41;75.72
73624;BME280;61921;53.226;-1.296;2023-03-19T09:31:10;100298.72;;;10.93;74.50
73624;BME280;61921;53.226;-1.296;2023-03-19T09:33:35;100303.36;;;10.89;73.45
73624;BME280;61921;53.226;-1.296;2023-03-19T09:36:01;100305.07;;;11.07;71.78
73624;BME280;61921;53.226;-1.296;2023-03-19T09:38:26;100315.09;;;11.16;72.49
73624;BME280;61921;53.226;-1.296;2023-03-19T09:41:02;100314.89;;;10.92;72.92
73624;BME280;61921;53.226;-1.296;2023-03-19T09:43:28;100315.06;;;11.10;71.20
73624;BME280;61921;53.226;-1.296;2023-03-19T09:45:44;100314.75;;;11.24;70.48
73624;BME280;61921;53.226;-1.296;2023-03-19T09:48:15;100313.58;;;11.22;72.32
73624;BME280;61921;53.226;-1.296;2023-03-19T09:50:34;100314.55;;;10.94;71.80
73624;BME280;61921;53.226;-1.296;2023-03-19T09:53:02;100320.47;;;10.81;71.83
73624;BME280;61921;53.226;-1.296;2023-03-19T09:55:34;100323.17;;;10.50;72.86
73624;BME280;61921;53.226;-1.296;2023-03-19T09:57:50;100321.20;;;10.96;73.15
73624;BME280;61921;53.226;-1.296;2023-03-19T10:00:20;100320.61;;;10.97;71.67
73624;BME280;61921;53.226;-1.296;2023-03-19T10:02:41;100332.08;;;10.72;72.83
73624;BME280;61921;53.226;-1.296;2023-03-19T10:05:14;100334.80;;;11.14;71.79
73624;BME280;61921;53.226;-1.296;2023-03-19T10:07:43;100336.01;;;11.30;69.75
73624;BME280;61921;53.226;-1.296;2023-03-19T10:10:10;100337.68;;;11.45;68.26
73624;BME280;61921;53.226;-1.296;2023-03-19T10:12:31;100342.41;;;11.73;66.31
73624;BME280;61921;53.226;-1.296;2023-03-19T10:15:00;100347.82;;;11.94;67.46
73624;BME280;61921;53.226;-1.296;2023-03-19T10:17:15;100351.30;;;12.19;66.78
73624;BME280;61921;53.226;-1.296;2023-03-19T10:19:41;100355.78;;;12.08;66.66
73624;BME280;61921;53.226;-1.296;2023-03-19T10:22:06;100356.21;;;11.92;65.74
73624;BME280;61921;53.226;-1.296;2023-03-19T10:24:32;100357.96;;;11.75;66.05
73624;BME280;61921;53.226;-1.296;2023-03-19T10:26:58;100359.90;;;10.97;67.81
73624;BME280;61921;53.226;-1.296;2023-03-19T10:29:22;100353.34;;;10.79;70.97
73624;BME280;61921;53.226;-1.296;2023-03-19T10:31:50;100349.69;;;11.18;68.44
73624;BME280;61921;53.226;-1.296;2023-03-19T10:34:20;100354.83;;;11.51;67.76
73624;BME280;61921;53.226;-1.296;2023-03-19T10:36:35;100352.32;;;12.34;67.41
73624;BME280;61921;53.226;-1.296;2023-03-19T10:39:00;100359.87;;;13.02;64.38
73624;BME280;61921;53.226;-1.296;2023-03-19T10:41:36;100357.73;;;13.50;63.50
73624;BME280;61921;53.226;-1.296;2023-03-19T10:43:53;100360.57;;;13.63;60.70
73624;BME280;61921;53.226;-1.296;2023-03-19T10:46:16;100358.63;;;13.82;60.42
73624;BME280;61921;53.226;-1.296;2023-03-19T10:48:44;100364.02;;;13.50;59.24
73624;BME280;61921;53.226;-1.296;2023-03-19T10:51:09;100366.40;;;13.28;59.53
73624;BME280;61921;53.226;-1.296;2023-03-19T10:53:34;100373.57;;;13.02;59.51
73624;BME280;61921;53.226;-1.296;2023-03-19T10:56:01;100376.87;;;12.96;61.58
73624;BME280;61921;53.226;-1.296;2023-03-19T10:58:25;100377.11;;;12.58;61.50
73624;BME280;61921;53.226;-1.296;2023-03-19T11:00:54;100380.13;;;12.18;60.79
73624;BME280;61921;53.226;-1.296;2023-03-19T11:05:39;100387.12;;;12.31;63.07
73624;BME280;61921;53.226;-1.296;2023-03-19T11:08:12;100391.01;;;12.30;62.85
73624;BME280;61921;53.226;-1.296;2023-03-19T11:10:31;100385.66;;;13.12;61.29
73624;BME280;61921;53.226;-1.296;2023-03-19T11:12:56;100377.67;;;13.29;59.64
73624;BME280;61921;53.226;-1.296;2023-03-19T11:15:22;100381.11;;;13.55;58.75
73624;BME280;61921;53.226;-1.296;2023-03-19T11:17:48;100384.40;;;13.06;59.81
73624;BME280;61921;53.226;-1.296;2023-03-19T11:20:18;100387.26;;;12.96;60.01
73624;BME280;61921;53.226;-1.296;2023-03-19T11:22:38;100389.05;;;13.29;60.16
73624;BME280;61921;53.226;-1.296;2023-03-19T11:25:13;100392.66;;;13.29;59.22
73624;BME280;61921;53.226;-1.296;2023-03-19T11:27:29;100394.25;;;13.03;58.96
73624;BME280;61921;53.226;-1.296;2023-03-19T11:29:52;100394.89;;;13.00;60.17
73624;BME280;61921;53.226;-1.296;2023-03-19T11:32:27;100395.08;;;12.81;60.10
73624;BME280;61921;53.226;-1.296;2023-03-19T11:34:46;100391.95;;;12.65;60.72
73624;BME280;61921;53.226;-1.296;2023-03-19T11:37:15;100386.80;;;12.70;59.38
73624;BME280;61921;53.226;-1.296;2023-03-19T11:39:38;100386.78;;;13.14;58.85
73624;BME280;61921;53.226;-1.296;2023-03-19T11:42:10;100387.54;;;13.43;58.35
73624;BME280;61921;53.226;-1.296;2023-03-19T11:44:28;100385.19;;;13.59;59.08
73624;BME280;61921;53.226;-1.296;2023-03-19T11:46:54;100377.27;;;13.71;58.24
73624;BME280;61921;53.226;-1.296;2023-03-19T11:49:24;100373.07;;;14.50;55.96
73624;BME280;61921;53.226;-1.296;2023-03-19T11:51:45;100372.59;;;14.68;55.82
73624;BME280;61921;53.226;-1.296;2023-03-19T11:54:12;100374.83;;;13.87;55.47
73624;BME280;61921;53.226;-1.296;2023-03-19T11:56:36;100371.46;;;13.87;57.03
73624;BME280;61921;53.226;-1.296;2023-03-19T11:59:08;100371.70;;;13.74;54.85
73624;BME280;61921;53.226;-1.296;2023-03-19T12:01:30;100375.43;;;13.14;56.15
73624;BME280;61921;53.226;-1.296;2023-03-19T12:03:56;100379.51;;;13.58;56.94
73624;BME280;61921;53.226;-1.296;2023-03-19T12:06:23;100381.70;;;14.14;55.35
73624;BME280;61921;53.226;-1.296;2023-03-19T12:08:40;100391.48;;;14.48;54.46
73624;BME280;61921;53.226;-1.296;2023-03-19T12:11:12;100385.69;;;14.96;53.00
73624;BME280;61921;53.226;-1.296;2023-03-19T12:13:37;100379.56;;;15.15;50.01
73624;BME280;61921;53.226;-1.296;2023-03-19T12:15:59;100381.92;;;15.52;50.42
73624;BME280;61921;53.226;-1.296;2023-03-19T12:18:36;100382.33;;;15.63;50.42
73624;BME280;61921;53.226;-1.296;2023-03-19T12:20:51;100380.10;;;15.71;50.24
73624;BME280;61921;53.226;-1.296;2023-03-19T12:23:18;100377.26;;;16.08;49.06
73624;BME280;61921;53.226;-1.296;2023-03-19T12:25:46;100372.41;;;16.02;48.17
73624;BME280;61921;53.226;-1.296;2023-03-19T12:28:04;100380.91;;;15.76;47.91
73624;BME280;61921;53.226;-1.296;2023-03-19T12:30:32;100383.85;;;16.01;47.96
73624;BME280;61921;53.226;-1.296;2023-03-19T12:33:02;100376.98;;;15.98;48.68
73624;BME280;61921;53.226;-1.296;2023-03-19T12:35:17;100382.25;;;15.71;47.86
73624;BME280;61921;53.226;-1.296;2023-03-19T12:37:43;100381.30;;;15.97;48.11
73624;BME280;61921;53.226;-1.296;2023-03-19T12:40:14;100383.95;;;15.90;48.41
73624;BME280;61921;53.226;-1.296;2023-03-19T12:42:36;100389.61;;;15.70;48.38